createdAt,value
2016-09-30T00:00:14.722Z,-88
2016-09-30T00:01:14.848Z,-88
2016-09-30T00:02:14.729Z,-88
2016-09-30T00:03:14.779Z,-88
2016-09-30T00:04:14.886Z,-87
2016-09-30T00:05:14.656Z,-89
2016-09-30T00:06:14.769Z,-88
2016-09-30T00:07:14.667Z,-87
2016-09-30T00:08:14.665Z,-88
2016-09-30T00:09:14.672Z,-87
2016-09-30T00:10:14.766Z,-88
2016-09-30T00:11:14.784Z,-88
2016-09-30T00:12:14.719Z,-88
2016-09-30T00:13:14.785Z,-88
2016-09-30T00:14:14.822Z,-89
2016-09-30T00:15:14.793Z,-87
2016-09-30T00:16:14.692Z,-88
2016-09-30T00:17:14.656Z,-88
2016-09-30T00:18:14.649Z,-88
2016-09-30T00:19:14.810Z,-88
2016-09-30T00:20:14.919Z,-88
2016-09-30T00:21:14.715Z,-88
2016-09-30T00:22:14.868Z,-88
2016-09-30T00:23:14.753Z,-88
2016-09-30T00:24:14.857Z,-88
2016-09-30T00:25:14.730Z,-87
2016-09-30T00:26:14.777Z,-89
2016-09-30T00:27:14.794Z,-88
2016-09-30T00:28:14.796Z,-88
2016-09-30T00:29:14.865Z,-88
2016-09-30T00:30:14.817Z,-88
2016-09-30T00:31:14.734Z,-88
2016-09-30T00:32:14.788Z,-89
2016-09-30T00:33:14.809Z,-88
2016-09-30T00:34:14.889Z,-87
2016-09-30T00:35:14.808Z,-88
2016-09-30T00:36:14.870Z,-89
2016-09-30T00:37:14.886Z,-88
2016-09-30T00:38:14.778Z,-88
2016-09-30T00:39:14.843Z,-88
2016-09-30T00:40:14.835Z,-89
2016-09-30T00:41:14.878Z,-88
2016-09-30T00:42:14.757Z,-88
2016-09-30T00:43:14.700Z,-88
2016-09-30T00:44:15.114Z,-88
2016-09-30T00:45:14.779Z,-88
2016-09-30T00:46:14.888Z,-88
2016-09-30T00:47:14.819Z,-89
2016-09-30T00:48:14.906Z,-88
2016-09-30T00:49:14.859Z,-89
2016-09-30T00:50:14.908Z,-88
2016-09-30T00:51:14.931Z,-88
2016-09-30T00:52:14.935Z,-88
2016-09-30T00:53:14.836Z,-88
2016-09-30T00:54:14.902Z,-88
2016-09-30T00:55:14.798Z,-88
2016-09-30T00:56:14.847Z,-88
2016-09-30T00:57:14.900Z,-88
2016-09-30T00:58:14.974Z,-88
2016-09-30T00:59:14.961Z,-88
2016-09-30T01:00:14.890Z,-88
2016-09-30T01:01:14.890Z,-89
2016-09-30T01:02:14.897Z,-88
2016-09-30T01:03:14.804Z,-89
2016-09-30T01:04:14.900Z,-88
2016-09-30T01:05:14.979Z,-88
2016-09-30T01:06:14.948Z,-88
2016-09-30T01:07:14.852Z,-89
2016-09-30T01:08:14.982Z,-88
2016-09-30T01:09:14.825Z,-88
2016-09-30T01:10:14.871Z,-88
2016-09-30T01:11:14.992Z,-88
2016-09-30T01:12:14.987Z,-88
2016-09-30T01:13:14.973Z,-88
2016-09-30T01:14:14.876Z,-88
2016-09-30T01:15:14.921Z,-88
2016-09-30T01:16:14.770Z,-89
2016-09-30T01:17:14.955Z,-88
2016-09-30T01:18:15.031Z,-88
2016-09-30T01:19:14.906Z,-88
2016-09-30T01:20:15.043Z,-88
2016-09-30T01:21:14.904Z,-88
2016-09-30T01:22:14.891Z,-88
2016-09-30T01:23:14.966Z,-88
2016-09-30T01:24:15.128Z,-88
2016-09-30T01:25:14.996Z,-88
2016-09-30T01:26:15.035Z,-89
2016-09-30T01:27:14.877Z,-88
2016-09-30T01:28:14.940Z,-89
2016-09-30T01:29:15.028Z,-88
2016-09-30T01:30:14.980Z,-88
2016-09-30T01:31:14.965Z,-89
2016-09-30T01:32:14.978Z,-88
2016-09-30T01:33:15.056Z,-89
2016-09-30T01:34:14.926Z,-88
2016-09-30T01:35:14.934Z,-88
2016-09-30T01:36:15.035Z,-89
2016-09-30T01:37:14.980Z,-89
2016-09-30T01:38:15.063Z,-89
2016-09-30T01:39:14.986Z,-89
2016-09-30T01:40:15.160Z,-89
2016-09-30T01:41:14.951Z,-88
2016-09-30T01:42:14.994Z,-88
2016-09-30T01:43:15.076Z,-89
2016-09-30T01:44:14.940Z,-88
2016-09-30T01:45:14.986Z,-88
2016-09-30T01:46:14.963Z,-88
2016-09-30T01:47:14.913Z,-88
2016-09-30T01:48:15.046Z,-89
2016-09-30T01:49:14.985Z,-88
2016-09-30T01:50:15.052Z,-88
2016-09-30T01:51:15.002Z,-88
2016-09-30T01:52:14.974Z,-89
2016-09-30T01:53:15.091Z,-88
2016-09-30T01:54:14.963Z,-88
2016-09-30T01:55:14.967Z,-89
2016-09-30T01:56:15.415Z,-89
2016-09-30T01:57:15.113Z,-89
2016-09-30T01:58:14.956Z,-89
2016-09-30T01:59:15.089Z,-88
2016-09-30T02:00:15.100Z,-89
2016-09-30T02:01:15.016Z,-89
2016-09-30T02:02:15.161Z,-88
2016-09-30T02:03:15.024Z,-89
2016-09-30T02:04:14.984Z,-88
2016-09-30T02:05:15.294Z,-89
2016-09-30T02:06:15.093Z,-89
2016-09-30T02:07:15.145Z,-89
2016-09-30T02:08:15.119Z,-88
2016-09-30T02:09:15.047Z,-89
2016-09-30T02:10:15.110Z,-88
2016-09-30T02:11:15.039Z,-89
2016-09-30T02:12:15.177Z,-90
2016-09-30T02:13:15.115Z,-89
2016-09-30T02:14:15.095Z,-89
2016-09-30T02:15:15.124Z,-88
2016-09-30T02:16:15.201Z,-89
2016-09-30T02:17:15.051Z,-89
2016-09-30T02:18:15.145Z,-88
2016-09-30T02:19:15.202Z,-88
2016-09-30T02:20:15.164Z,-88
2016-09-30T02:21:15.169Z,-88
2016-09-30T02:22:15.128Z,-88
2016-09-30T02:23:15.146Z,-88
2016-09-30T02:24:15.164Z,-89
2016-09-30T02:25:15.085Z,-89
2016-09-30T02:26:15.130Z,-89
2016-09-30T02:27:15.129Z,-89
2016-09-30T02:28:15.299Z,-89
2016-09-30T02:29:15.074Z,-88
2016-09-30T02:30:15.096Z,-88
2016-09-30T02:31:15.152Z,-88
2016-09-30T02:32:15.089Z,-89
2016-09-30T02:33:15.101Z,-89
2016-09-30T02:34:15.138Z,-89
2016-09-30T02:35:15.045Z,-89
2016-09-30T02:36:15.151Z,-89
2016-09-30T02:37:15.032Z,-89
2016-09-30T02:38:15.164Z,-89
2016-09-30T02:39:15.043Z,-88
2016-09-30T02:40:15.203Z,-89
2016-09-30T02:41:15.183Z,-88
2016-09-30T02:42:15.162Z,-89
2016-09-30T02:43:15.172Z,-89
2016-09-30T02:44:15.295Z,-89
2016-09-30T02:45:15.249Z,-89
2016-09-30T02:46:15.111Z,-89
2016-09-30T02:47:15.163Z,-89
2016-09-30T02:48:15.201Z,-88
2016-09-30T02:49:15.183Z,-88
2016-09-30T02:50:15.128Z,-89
2016-09-30T02:51:15.242Z,-89
2016-09-30T02:52:15.218Z,-89
2016-09-30T02:53:15.150Z,-89
2016-09-30T02:54:15.317Z,-89
2016-09-30T02:55:15.278Z,-88
2016-09-30T02:56:15.198Z,-89
2016-09-30T02:57:15.243Z,-89
2016-09-30T02:58:15.137Z,-89
2016-09-30T02:59:15.198Z,-89
2016-09-30T03:00:15.335Z,-88
2016-09-30T03:01:15.293Z,-89
2016-09-30T03:02:15.291Z,-89
2016-09-30T03:03:15.263Z,-89
2016-09-30T03:04:15.155Z,-90
2016-09-30T03:05:15.270Z,-89
2016-09-30T03:06:15.303Z,-85
2016-09-30T03:07:15.292Z,-86
2016-09-30T03:08:15.154Z,-86
2016-09-30T03:09:15.182Z,-89
2016-09-30T03:10:15.626Z,-89
2016-09-30T03:11:15.332Z,-89
2016-09-30T03:12:15.121Z,-89
2016-09-30T03:13:15.279Z,-89
2016-09-30T03:14:15.193Z,-89
2016-09-30T03:15:15.246Z,-88
2016-09-30T03:16:15.383Z,-89
2016-09-30T03:17:15.244Z,-89
2016-09-30T03:18:15.275Z,-89
2016-09-30T03:19:15.289Z,-88
2016-09-30T03:20:15.128Z,-89
2016-09-30T03:21:15.399Z,-89
2016-09-30T03:22:15.293Z,-89
2016-09-30T03:23:15.292Z,-88
2016-09-30T03:24:15.128Z,-89
2016-09-30T03:25:15.213Z,-88
2016-09-30T03:26:15.328Z,-89
2016-09-30T03:27:15.341Z,-88
2016-09-30T03:28:15.140Z,-89
2016-09-30T03:29:15.302Z,-89
2016-09-30T03:30:15.366Z,-89
2016-09-30T03:31:15.304Z,-89
2016-09-30T03:32:15.413Z,-89
2016-09-30T03:33:15.241Z,-89
2016-09-30T03:34:15.275Z,-89
2016-09-30T03:35:15.358Z,-89
2016-09-30T03:36:15.246Z,-89
2016-09-30T03:37:15.319Z,-88
2016-09-30T03:38:15.358Z,-89
2016-09-30T03:39:15.294Z,-89
2016-09-30T03:40:15.394Z,-89
2016-09-30T03:41:15.435Z,-89
2016-09-30T03:42:15.695Z,-89
2016-09-30T03:43:15.306Z,-89
2016-09-30T03:44:15.424Z,-89
2016-09-30T03:45:15.301Z,-89
2016-09-30T03:46:15.304Z,-89
2016-09-30T03:47:15.350Z,-89
2016-09-30T03:48:15.562Z,-89
2016-09-30T03:49:15.284Z,-89
2016-09-30T03:50:15.451Z,-89
2016-09-30T03:51:15.398Z,-88
2016-09-30T03:52:15.386Z,-88
2016-09-30T03:53:15.441Z,-89
2016-09-30T03:54:15.358Z,-89
2016-09-30T03:55:15.302Z,-88
2016-09-30T03:56:15.460Z,-89
2016-09-30T03:57:15.329Z,-88
2016-09-30T03:58:15.414Z,-89
2016-09-30T03:59:15.263Z,-89
2016-09-30T04:00:15.394Z,-88
2016-09-30T04:01:15.403Z,-89
2016-09-30T04:02:15.477Z,-89
2016-09-30T04:03:15.441Z,-89
2016-09-30T04:04:15.555Z,-88
2016-09-30T04:05:15.375Z,-89
2016-09-30T04:06:15.516Z,-89
2016-09-30T04:07:15.488Z,-89
2016-09-30T04:08:15.312Z,-88
2016-09-30T04:09:15.505Z,-89
2016-09-30T04:10:15.377Z,-89
2016-09-30T04:11:15.388Z,-89
2016-09-30T04:12:15.585Z,-89
2016-09-30T04:13:15.430Z,-89
2016-09-30T04:14:15.382Z,-88
2016-09-30T04:15:15.439Z,-89
2016-09-30T04:16:15.427Z,-89
2016-09-30T04:17:15.368Z,-89
2016-09-30T04:18:15.398Z,-89
2016-09-30T04:19:15.391Z,-88
2016-09-30T04:20:15.686Z,-88
2016-09-30T04:21:15.662Z,-88
2016-09-30T04:22:15.389Z,-88
2016-09-30T04:23:15.461Z,-89
2016-09-30T04:24:15.387Z,-88
2016-09-30T04:25:15.451Z,-88
2016-09-30T04:26:15.456Z,-89
2016-09-30T04:27:15.489Z,-89
2016-09-30T04:28:15.422Z,-89
2016-09-30T04:29:15.433Z,-89
2016-09-30T04:30:15.491Z,-89
2016-09-30T04:31:15.467Z,-89
2016-09-30T04:32:15.532Z,-89
2016-09-30T04:33:15.484Z,-89
2016-09-30T04:34:15.540Z,-89
2016-09-30T04:35:15.505Z,-89
2016-09-30T04:36:15.702Z,-89
2016-09-30T04:37:15.557Z,-89
2016-09-30T04:38:15.456Z,-89
2016-09-30T04:39:15.569Z,-89
2016-09-30T04:40:15.578Z,-89
2016-09-30T04:41:15.486Z,-89
2016-09-30T04:42:15.514Z,-89
2016-09-30T04:43:15.556Z,-89
2016-09-30T04:44:15.479Z,-88
2016-09-30T04:45:15.513Z,-88
2016-09-30T04:46:15.572Z,-89
2016-09-30T04:47:15.476Z,-89
2016-09-30T04:48:15.521Z,-89
2016-09-30T04:49:15.531Z,-89
2016-09-30T04:50:15.613Z,-89
2016-09-30T04:51:15.531Z,-88
2016-09-30T04:52:15.752Z,-89
2016-09-30T04:53:15.394Z,-89
2016-09-30T04:54:15.510Z,-89
2016-09-30T04:55:15.525Z,-88
2016-09-30T04:56:15.637Z,-89
2016-09-30T04:57:15.713Z,-89
2016-09-30T04:58:15.504Z,-89
2016-09-30T04:59:15.517Z,-88
2016-09-30T05:00:15.513Z,-89
2016-09-30T05:01:15.528Z,-89
2016-09-30T05:02:15.602Z,-89
2016-09-30T05:03:15.613Z,-88
2016-09-30T05:04:15.503Z,-88
2016-09-30T05:05:15.590Z,-89
2016-09-30T05:06:15.562Z,-89
2016-09-30T05:07:15.592Z,-89
2016-09-30T05:08:15.805Z,-88
2016-09-30T05:09:15.615Z,-89
2016-09-30T05:10:15.559Z,-89
2016-09-30T05:11:15.644Z,-89
2016-09-30T05:12:15.477Z,-89
2016-09-30T05:13:16.113Z,-89
2016-09-30T05:14:15.500Z,-89
2016-09-30T05:15:15.577Z,-89
2016-09-30T05:16:15.643Z,-88
2016-09-30T05:17:15.515Z,-89
2016-09-30T05:18:15.658Z,-88
2016-09-30T05:19:15.488Z,-90
2016-09-30T05:20:15.545Z,-89
2016-09-30T05:21:15.612Z,-89
2016-09-30T05:22:15.615Z,-89
2016-09-30T05:23:15.627Z,-89
2016-09-30T05:24:15.721Z,-89
2016-09-30T05:25:15.562Z,-90
2016-09-30T05:26:15.560Z,-89
2016-09-30T05:27:15.521Z,-89
2016-09-30T05:28:15.656Z,-89
2016-09-30T05:29:15.688Z,-89
2016-09-30T05:30:15.732Z,-89
2016-09-30T05:31:15.634Z,-89
2016-09-30T05:32:15.666Z,-89
2016-09-30T05:33:15.665Z,-89
2016-09-30T05:34:15.651Z,-89
2016-09-30T05:35:15.568Z,-89
2016-09-30T05:36:15.644Z,-89
2016-09-30T05:37:15.669Z,-89
2016-09-30T05:38:15.692Z,-89
2016-09-30T05:39:15.654Z,-90
2016-09-30T05:40:15.928Z,-88
2016-09-30T05:41:15.653Z,-89
2016-09-30T05:42:15.694Z,-89
2016-09-30T05:43:15.730Z,-89
2016-09-30T05:44:15.750Z,-89
2016-09-30T05:45:15.732Z,-89
2016-09-30T05:46:15.766Z,-89
2016-09-30T05:47:15.702Z,-89
2016-09-30T05:48:15.704Z,-89
2016-09-30T05:49:15.730Z,-89
2016-09-30T05:50:16.005Z,-89
2016-09-30T05:51:15.654Z,-89
2016-09-30T05:52:15.711Z,-89
2016-09-30T05:53:15.649Z,-89
2016-09-30T05:54:15.695Z,-89
2016-09-30T05:55:15.678Z,-89
2016-09-30T05:56:15.780Z,-89
2016-09-30T05:57:15.640Z,-90
2016-09-30T05:58:15.754Z,-89
2016-09-30T05:59:15.847Z,-89
2016-09-30T06:00:15.753Z,-89
2016-09-30T06:01:15.710Z,-89
2016-09-30T06:02:15.776Z,-89
2016-09-30T06:03:15.710Z,-89
2016-09-30T06:04:15.843Z,-89
2016-09-30T06:05:15.741Z,-90
2016-09-30T06:06:15.775Z,-90
2016-09-30T06:07:15.760Z,-89
2016-09-30T06:08:15.793Z,-89
2016-09-30T06:09:15.766Z,-89
2016-09-30T06:10:15.836Z,-89
2016-09-30T06:11:15.721Z,-89
2016-09-30T06:12:15.886Z,-90
2016-09-30T06:13:15.649Z,-90
2016-09-30T06:14:15.726Z,-89
2016-09-30T06:15:15.774Z,-89
2016-09-30T06:16:15.831Z,-89
2016-09-30T06:17:15.793Z,-89
2016-09-30T06:18:15.769Z,-89
2016-09-30T06:19:15.703Z,-90
2016-09-30T06:20:15.868Z,-89
2016-09-30T06:21:15.879Z,-89
2016-09-30T06:22:16.253Z,-89
2016-09-30T06:23:15.720Z,-89
2016-09-30T06:24:15.836Z,-89
2016-09-30T06:25:15.874Z,-89
2016-09-30T06:26:15.837Z,-89
2016-09-30T06:27:15.810Z,-89
2016-09-30T06:28:16.014Z,-89
2016-09-30T06:29:16.417Z,-89
2016-09-30T06:30:16.438Z,-88
2016-09-30T06:31:15.887Z,-89
2016-09-30T06:32:15.831Z,-89
2016-09-30T06:33:16.048Z,-89
2016-09-30T06:34:15.859Z,-90
2016-09-30T06:35:15.764Z,-89
2016-09-30T06:36:15.876Z,-89
2016-09-30T06:37:15.813Z,-89
2016-09-30T06:38:15.812Z,-89
2016-09-30T06:39:15.902Z,-89
2016-09-30T06:40:15.923Z,-89
2016-09-30T06:41:15.862Z,-90
2016-09-30T06:42:16.405Z,-89
2016-09-30T06:43:16.577Z,-89
2016-09-30T06:44:15.858Z,-89
2016-09-30T06:45:15.848Z,-89
2016-09-30T06:46:16.032Z,-89
2016-09-30T06:47:15.830Z,-90
2016-09-30T06:48:15.785Z,-89
2016-09-30T06:49:15.936Z,-89
2016-09-30T06:50:15.864Z,-88
2016-09-30T06:51:17.591Z,-90
2016-09-30T06:52:15.925Z,-89
2016-09-30T06:53:15.810Z,-89
2016-09-30T06:54:15.966Z,-89
2016-09-30T06:55:15.837Z,-90
2016-09-30T06:56:15.893Z,-90
2016-09-30T06:57:16.927Z,-89
2016-09-30T06:58:15.929Z,-89
2016-09-30T06:59:16.082Z,-89
2016-09-30T07:00:15.909Z,-89
2016-09-30T07:01:15.896Z,-89
2016-09-30T07:02:15.936Z,-90
2016-09-30T07:03:15.938Z,-90
2016-09-30T07:04:16.010Z,-90
2016-09-30T07:05:15.945Z,-89
2016-09-30T07:06:15.997Z,-89
2016-09-30T07:07:15.902Z,-88
2016-09-30T07:08:15.931Z,-89
2016-09-30T07:09:15.997Z,-90
2016-09-30T07:10:15.956Z,-90
2016-09-30T07:11:15.926Z,-90
2016-09-30T07:12:16.038Z,-90
2016-09-30T07:13:15.866Z,-93
2016-09-30T07:14:15.961Z,-91
2016-09-30T07:15:16.028Z,-91
2016-09-30T07:16:16.021Z,-90
2016-09-30T07:17:15.939Z,-90
2016-09-30T07:18:15.956Z,-89
2016-09-30T07:19:15.850Z,-94
2016-09-30T07:20:15.874Z,-91
2016-09-30T07:21:16.008Z,-92
2016-09-30T07:22:15.974Z,-92
2016-09-30T07:23:15.950Z,-91
2016-09-30T07:24:15.877Z,-90
2016-09-30T07:25:16.047Z,-91
2016-09-30T07:26:16.003Z,-91
2016-09-30T07:27:16.050Z,-91
2016-09-30T07:28:16.129Z,-90
2016-09-30T07:29:16.034Z,-91
2016-09-30T07:30:15.976Z,-92
2016-09-30T07:31:16.489Z,-92
2016-09-30T07:32:16.072Z,-91
2016-09-30T07:33:16.020Z,-92
2016-09-30T07:34:16.063Z,-91
2016-09-30T07:35:16.160Z,-89
2016-09-30T07:36:15.922Z,-88
2016-09-30T07:37:16.114Z,-89
2016-09-30T07:38:16.025Z,-91
2016-09-30T07:39:16.085Z,-88
2016-09-30T07:40:16.088Z,-88
2016-09-30T07:41:16.124Z,-90
2016-09-30T07:42:16.123Z,-90
2016-09-30T07:43:15.940Z,-93
2016-09-30T07:44:15.985Z,-93
2016-09-30T07:45:16.052Z,-92
2016-09-30T07:46:16.126Z,-92
2016-09-30T07:47:16.226Z,-91
2016-09-30T07:48:16.068Z,-92
2016-09-30T07:49:15.994Z,-92
2016-09-30T07:50:16.051Z,-91
2016-09-30T07:51:16.143Z,-92
2016-09-30T07:52:16.139Z,-91
2016-09-30T07:53:17.072Z,-90
2016-09-30T07:54:17.816Z,-95
2016-09-30T07:55:16.376Z,-96
2016-09-30T07:56:16.337Z,-96
2016-09-30T07:57:17.446Z,-95
2016-09-30T07:58:16.369Z,-96
2016-09-30T07:59:16.424Z,-96
2016-09-30T08:00:16.124Z,-96
2016-09-30T08:01:16.113Z,-96
2016-09-30T08:02:16.042Z,-95
2016-09-30T08:03:16.256Z,-95
2016-09-30T08:04:16.074Z,-96
2016-09-30T08:05:16.151Z,-96
2016-09-30T08:06:16.049Z,-96
2016-09-30T08:07:16.087Z,-94
2016-09-30T08:08:15.960Z,-95
2016-09-30T08:09:16.337Z,-96
2016-09-30T08:10:16.231Z,-95
2016-09-30T08:11:16.203Z,-96
2016-09-30T08:12:16.087Z,-96
2016-09-30T08:13:16.163Z,-95
2016-09-30T08:14:16.426Z,-95
2016-09-30T08:15:16.175Z,-96
2016-09-30T08:16:16.105Z,-95
2016-09-30T08:17:16.047Z,-96
2016-09-30T08:18:16.066Z,-95
2016-09-30T08:19:16.534Z,-96
2016-09-30T08:20:16.302Z,-95
2016-09-30T08:21:16.160Z,-95
2016-09-30T08:22:16.234Z,-96
2016-09-30T08:23:16.055Z,-95
2016-09-30T08:24:16.282Z,-94
2016-09-30T08:25:16.365Z,-95
2016-09-30T08:26:16.191Z,-95
2016-09-30T08:27:16.168Z,-94
2016-09-30T08:28:16.165Z,-96
2016-09-30T08:29:16.311Z,-95
2016-09-30T08:30:16.307Z,-95
2016-09-30T08:31:16.086Z,-96
2016-09-30T08:32:16.202Z,-96
2016-09-30T08:33:16.210Z,-96
2016-09-30T08:34:16.301Z,-94
2016-09-30T08:35:19.590Z,-95
2016-09-30T08:36:17.390Z,-96
2016-09-30T08:37:16.189Z,-96
2016-09-30T08:38:16.166Z,-96
2016-09-30T08:39:16.617Z,-96
2016-09-30T08:40:16.475Z,-96
2016-09-30T08:41:16.172Z,-96
2016-09-30T08:42:16.280Z,-96
2016-09-30T08:43:16.212Z,-96
2016-09-30T08:44:16.124Z,-96
2016-09-30T08:45:16.196Z,-94
2016-09-30T08:46:16.449Z,-95
2016-09-30T08:47:16.186Z,-94
2016-09-30T08:48:16.223Z,-96
2016-09-30T08:49:16.288Z,-96
2016-09-30T08:50:16.177Z,-96
2016-09-30T08:51:16.651Z,-94
2016-09-30T08:52:16.139Z,-93
2016-09-30T08:53:16.156Z,-92
2016-09-30T08:54:16.246Z,-96
2016-09-30T08:55:16.105Z,-90
2016-09-30T08:56:16.287Z,-91
2016-09-30T08:57:16.207Z,-93
2016-09-30T08:58:16.290Z,-95
2016-09-30T08:59:16.268Z,-92
2016-09-30T09:00:16.158Z,-92
2016-09-30T09:01:16.138Z,-92
2016-09-30T09:02:16.297Z,-92
2016-09-30T09:03:16.197Z,-93
2016-09-30T09:04:16.302Z,-93
2016-09-30T09:05:16.256Z,-93
2016-09-30T09:06:16.257Z,-92
2016-09-30T09:07:16.415Z,-96
2016-09-30T09:08:16.264Z,-94
2016-09-30T09:09:16.459Z,-94
2016-09-30T09:10:16.310Z,-94
2016-09-30T09:11:17.209Z,-92
2016-09-30T09:12:16.396Z,-93
2016-09-30T09:13:16.594Z,-94
2016-09-30T09:14:16.253Z,-90
2016-09-30T09:15:16.305Z,-92
2016-09-30T09:16:16.342Z,-92
2016-09-30T09:17:16.302Z,-92
2016-09-30T09:18:16.652Z,-93
2016-09-30T09:19:16.501Z,-92
2016-09-30T09:20:16.219Z,-91
2016-09-30T09:21:16.197Z,-94
2016-09-30T09:22:16.275Z,-93
2016-09-30T09:23:16.857Z,-93
2016-09-30T09:24:16.956Z,-94
2016-09-30T09:25:16.347Z,-92
2016-09-30T09:26:16.346Z,-94
2016-09-30T09:27:16.331Z,-92
2016-09-30T09:28:16.812Z,-92
2016-09-30T09:29:18.981Z,-91
2016-09-30T09:30:16.378Z,-94
2016-09-30T09:31:16.496Z,-93
2016-09-30T09:32:16.293Z,-91
2016-09-30T09:33:16.314Z,-92
2016-09-30T09:34:16.486Z,-92
2016-09-30T09:35:16.302Z,-92
2016-09-30T09:36:16.376Z,-91
2016-09-30T09:37:16.506Z,-93
2016-09-30T09:38:16.429Z,-91
2016-09-30T09:39:16.691Z,-91
2016-09-30T09:40:16.296Z,-91
2016-09-30T09:41:16.402Z,-91
2016-09-30T09:42:16.406Z,-91
2016-09-30T09:43:16.403Z,-91
2016-09-30T09:44:16.451Z,-90
2016-09-30T09:45:16.333Z,-90
2016-09-30T09:46:16.402Z,-90
2016-09-30T09:47:16.525Z,-92
2016-09-30T09:48:16.449Z,-90
2016-09-30T09:49:16.373Z,-89
2016-09-30T09:50:16.330Z,-91
2016-09-30T09:51:16.519Z,-91
2016-09-30T09:52:16.408Z,-91
2016-09-30T09:53:16.347Z,-91
2016-09-30T09:54:16.382Z,-91
2016-09-30T09:55:16.971Z,-90
2016-09-30T09:56:16.354Z,-91
2016-09-30T09:57:16.386Z,-89
2016-09-30T09:58:16.344Z,-89
2016-09-30T09:59:16.403Z,-90
2016-09-30T10:00:16.760Z,-89
2016-09-30T10:01:16.391Z,-91
2016-09-30T10:02:16.515Z,-90
2016-09-30T10:03:16.333Z,-89
2016-09-30T10:04:16.477Z,-89
2016-09-30T10:05:16.450Z,-91
2016-09-30T10:06:16.787Z,-89
2016-09-30T10:07:16.464Z,-90
2016-09-30T10:08:16.428Z,-89
2016-09-30T10:09:16.481Z,-89
2016-09-30T10:10:16.389Z,-89
2016-09-30T10:11:17.505Z,-89
2016-09-30T10:12:16.524Z,-89
2016-09-30T10:13:16.418Z,-89
2016-09-30T10:14:16.426Z,-90
2016-09-30T10:15:16.546Z,-89
2016-09-30T10:16:16.497Z,-89
2016-09-30T10:17:16.519Z,-89
2016-09-30T10:18:16.553Z,-89
2016-09-30T10:19:16.388Z,-89
2016-09-30T10:20:16.426Z,-89
2016-09-30T10:21:16.527Z,-89
2016-09-30T10:22:16.449Z,-88
2016-09-30T10:23:16.457Z,-89
2016-09-30T10:24:16.578Z,-89
2016-09-30T10:25:16.495Z,-88
2016-09-30T10:26:16.526Z,-89
2016-09-30T10:27:16.694Z,-89
2016-09-30T10:28:16.628Z,-89
2016-09-30T10:29:16.482Z,-88
2016-09-30T10:30:16.552Z,-88
2016-09-30T10:31:16.498Z,-89
2016-09-30T10:32:16.460Z,-89
2016-09-30T10:33:16.580Z,-88
2016-09-30T10:34:16.601Z,-88
2016-09-30T10:35:16.538Z,-88
2016-09-30T10:36:16.451Z,-87
2016-09-30T10:37:16.597Z,-88
2016-09-30T10:38:16.805Z,-87
2016-09-30T10:39:16.438Z,-88
2016-09-30T10:40:16.523Z,-89
2016-09-30T10:41:16.490Z,-88
2016-09-30T10:42:16.583Z,-87
2016-09-30T10:43:16.737Z,-87
2016-09-30T10:44:16.531Z,-89
2016-09-30T10:45:16.528Z,-88
2016-09-30T10:46:16.457Z,-87
2016-09-30T10:47:16.561Z,-87
2016-09-30T10:48:16.589Z,-87
2016-09-30T10:49:16.541Z,-87
2016-09-30T10:50:16.568Z,-88
2016-09-30T10:51:16.552Z,-87
2016-09-30T10:52:16.470Z,-87
2016-09-30T10:53:16.663Z,-88
2016-09-30T10:54:16.673Z,-87
2016-09-30T10:55:16.570Z,-88
2016-09-30T10:56:16.592Z,-89
2016-09-30T10:57:16.571Z,-88
2016-09-30T10:58:16.677Z,-90
2016-09-30T10:59:16.892Z,-88
2016-09-30T11:00:16.578Z,-89
2016-09-30T11:01:16.493Z,-87
2016-09-30T11:02:16.659Z,-87
2016-09-30T11:03:16.523Z,-88
2016-09-30T11:04:16.689Z,-88
2016-09-30T11:05:16.563Z,-87
2016-09-30T11:06:16.706Z,-88
2016-09-30T11:07:16.559Z,-88
2016-09-30T11:08:16.662Z,-88
2016-09-30T11:09:16.687Z,-87
2016-09-30T11:10:16.677Z,-87
2016-09-30T11:11:16.567Z,-87
2016-09-30T11:12:16.551Z,-88
2016-09-30T11:13:16.682Z,-87
2016-09-30T11:14:16.492Z,-87
2016-09-30T11:15:16.827Z,-88
2016-09-30T11:16:16.760Z,-86
2016-09-30T11:17:16.577Z,-87
2016-09-30T11:18:16.684Z,-86
2016-09-30T11:19:16.733Z,-86
2016-09-30T11:20:16.995Z,-87
2016-09-30T11:21:16.550Z,-88
2016-09-30T11:22:16.607Z,-87
2016-09-30T11:23:16.597Z,-87
2016-09-30T11:24:16.712Z,-87
2016-09-30T11:25:16.659Z,-86
2016-09-30T11:26:16.658Z,-87
2016-09-30T11:27:16.658Z,-87
2016-09-30T11:28:16.631Z,-87
2016-09-30T11:29:16.704Z,-88
2016-09-30T11:30:16.687Z,-88
2016-09-30T11:31:16.835Z,-88
2016-09-30T11:32:16.697Z,-88
2016-09-30T11:33:16.633Z,-89
2016-09-30T11:34:16.753Z,-89
2016-09-30T11:35:16.743Z,-88
2016-09-30T11:36:17.131Z,-89
2016-09-30T11:37:16.725Z,-87
2016-09-30T11:38:16.672Z,-88
2016-09-30T11:39:16.762Z,-87
2016-09-30T11:40:16.723Z,-87
2016-09-30T11:41:16.818Z,-88
2016-09-30T11:42:17.812Z,-87
2016-09-30T11:43:16.650Z,-87
2016-09-30T11:44:16.710Z,-86
2016-09-30T11:45:16.795Z,-87
2016-09-30T11:46:16.723Z,-87
2016-09-30T11:47:17.085Z,-86
2016-09-30T11:48:16.711Z,-87
2016-09-30T11:49:16.733Z,-87
2016-09-30T11:50:16.733Z,-86
2016-09-30T11:51:16.774Z,-88
2016-09-30T11:52:20.232Z,-87
2016-09-30T11:53:24.421Z,-87
2016-09-30T11:54:26.363Z,-87
2016-09-30T11:55:26.759Z,-87
2016-09-30T11:56:24.078Z,-87
2016-09-30T11:57:24.696Z,-88
2016-09-30T11:58:16.812Z,-87
2016-09-30T11:59:16.760Z,-87
2016-09-30T12:00:16.909Z,-87
2016-09-30T12:01:16.856Z,-88
2016-09-30T12:02:16.841Z,-88
2016-09-30T12:03:16.981Z,-88
2016-09-30T12:04:16.815Z,-88
2016-09-30T12:05:16.792Z,-87
2016-09-30T12:06:16.812Z,-88
2016-09-30T12:07:16.848Z,-87
2016-09-30T12:08:17.036Z,-87
2016-09-30T12:09:16.805Z,-87
2016-09-30T12:10:16.827Z,-88
2016-09-30T12:11:16.905Z,-87
2016-09-30T12:12:16.876Z,-88
2016-09-30T12:13:17.047Z,-87
2016-09-30T12:14:16.790Z,-87
2016-09-30T12:15:16.799Z,-87
2016-09-30T12:16:16.825Z,-87
2016-09-30T12:17:16.795Z,-87
2016-09-30T12:18:18.156Z,-86
2016-09-30T12:19:17.099Z,-87
2016-09-30T12:20:16.732Z,-87
2016-09-30T12:21:16.825Z,-87
2016-09-30T12:22:16.890Z,-86
2016-09-30T12:23:16.841Z,-87
2016-09-30T12:24:19.089Z,-89
2016-09-30T12:25:16.791Z,-88
2016-09-30T12:26:16.864Z,-88
2016-09-30T12:27:16.797Z,-87
2016-09-30T12:28:16.889Z,-87
2016-09-30T12:29:17.155Z,-87
2016-09-30T12:30:16.790Z,-87
2016-09-30T12:31:16.836Z,-86
2016-09-30T12:32:16.814Z,-87
2016-09-30T12:33:16.693Z,-87
2016-09-30T12:34:16.770Z,-87
2016-09-30T12:35:17.277Z,-87
2016-09-30T12:36:16.796Z,-87
2016-09-30T12:37:16.915Z,-89
2016-09-30T12:38:16.804Z,-85
2016-09-30T12:39:16.977Z,-87
2016-09-30T12:40:17.219Z,-85
2016-09-30T12:41:16.887Z,-86
2016-09-30T12:42:16.786Z,-87
2016-09-30T12:43:16.826Z,-87
2016-09-30T12:44:16.979Z,-86
2016-09-30T12:45:17.224Z,-86
2016-09-30T12:46:16.900Z,-87
2016-09-30T12:47:17.014Z,-86
2016-09-30T12:48:17.003Z,-87
2016-09-30T12:49:16.944Z,-86
2016-09-30T12:50:16.889Z,-86
2016-09-30T12:51:16.949Z,-86
2016-09-30T12:52:17.001Z,-86
2016-09-30T12:53:16.980Z,-86
2016-09-30T12:54:16.943Z,-86
2016-09-30T12:55:16.857Z,-87
2016-09-30T12:56:17.219Z,-86
2016-09-30T12:57:16.932Z,-87
2016-09-30T12:58:17.004Z,-85
2016-09-30T12:59:16.997Z,-87
2016-09-30T13:00:17.005Z,-87
2016-09-30T13:01:17.327Z,-87
2016-09-30T13:02:17.010Z,-86
2016-09-30T13:03:16.953Z,-86
2016-09-30T13:04:16.983Z,-86
2016-09-30T13:05:16.915Z,-86
2016-09-30T13:06:16.975Z,-88
2016-09-30T13:07:17.364Z,-86
2016-09-30T13:08:16.999Z,-87
2016-09-30T13:09:16.977Z,-86
2016-09-30T13:10:17.001Z,-87
2016-09-30T13:11:16.992Z,-85
2016-09-30T13:12:16.872Z,-88
2016-09-30T13:13:16.974Z,-87
2016-09-30T13:14:17.009Z,-86
2016-09-30T13:15:17.029Z,-87
2016-09-30T13:16:17.036Z,-86
2016-09-30T13:17:17.004Z,-86
2016-09-30T13:18:17.060Z,-87
2016-09-30T13:19:16.944Z,-86
2016-09-30T13:20:17.099Z,-86
2016-09-30T13:21:16.887Z,-86
2016-09-30T13:22:17.114Z,-86
2016-09-30T13:23:17.195Z,-87
2016-09-30T13:24:16.932Z,-87
2016-09-30T13:25:17.056Z,-86
2016-09-30T13:26:17.032Z,-86
2016-09-30T13:27:17.017Z,-86
2016-09-30T13:28:17.129Z,-86
2016-09-30T13:29:17.029Z,-86
2016-09-30T13:30:17.098Z,-87
2016-09-30T13:31:17.033Z,-85
2016-09-30T13:32:16.945Z,-86
2016-09-30T13:33:17.127Z,-85
2016-09-30T13:34:17.117Z,-85
2016-09-30T13:35:17.206Z,-86
2016-09-30T13:36:16.972Z,-86
2016-09-30T13:37:17.015Z,-86
2016-09-30T13:38:17.125Z,-86
2016-09-30T13:39:17.436Z,-86
2016-09-30T13:40:17.131Z,-86
2016-09-30T13:41:17.082Z,-86
2016-09-30T13:42:17.068Z,-86
2016-09-30T13:43:17.054Z,-86
2016-09-30T13:44:17.389Z,-87
2016-09-30T13:45:17.069Z,-87
2016-09-30T13:46:17.077Z,-86